createdAt,value
2022-10-01T00:02:19.962Z,8.07
2022-10-01T00:05:21.698Z,7.96
2022-10-01T00:08:23.181Z,8.01
2022-10-01T00:11:25.434Z,7.94
2022-10-01T00:14:27.740Z,7.84
2022-10-01T00:17:29.502Z,7.81
2022-10-01T00:20:31.031Z,7.70
2022-10-01T00:23:32.569Z,7.64
2022-10-01T00:26:34.997Z,7.53
2022-10-01T00:29:37.161Z,7.49
2022-10-01T00:32:41.166Z,7.65
2022-10-01T00:35:42.942Z,8.10
2022-10-01T00:38:44.513Z,8.29
2022-10-01T00:41:46.604Z,8.49
2022-10-01T00:44:49.247Z,8.63
2022-10-01T00:47:57.980Z,8.65
2022-10-01T00:50:59.501Z,8.59
2022-10-01T00:54:17.626Z,8.52
2022-10-01T00:57:20.357Z,8.53
2022-10-01T01:00:22.273Z,8.49
2022-10-01T01:03:23.812Z,8.43
2022-10-01T01:06:25.354Z,8.36
2022-10-01T01:09:28.757Z,8.15
2022-10-01T01:12:36.314Z,8.02
2022-10-01T01:15:41.168Z,7.97
2022-10-01T01:18:49.055Z,8.04
2022-10-01T01:21:52.186Z,8.32
2022-10-01T01:25:01.969Z,8.26
2022-10-01T01:28:06.576Z,8.15
2022-10-01T01:31:09.248Z,8.11
2022-10-01T01:34:13.720Z,8.03
2022-10-01T01:37:15.826Z,7.95
2022-10-01T01:40:17.373Z,7.92
2022-10-01T01:43:20.934Z,7.89
2022-10-01T01:46:22.527Z,8.01
2022-10-01T01:49:24.346Z,8.13
2022-10-01T01:52:25.906Z,8.15
2022-10-01T01:55:28.359Z,8.14
2022-10-01T01:58:30.258Z,8.04
2022-10-01T02:01:32.075Z,8.01
2022-10-01T02:04:54.957Z,8.04
2022-10-01T02:08:02.546Z,8.07
2022-10-01T02:11:33.419Z,7.94
2022-10-01T02:14:37.243Z,7.86
2022-10-01T02:17:50.625Z,7.77
2022-10-01T02:20:57.129Z,7.72
2022-10-01T02:24:03.315Z,7.72
2022-10-01T02:27:07.120Z,7.73
2022-10-01T02:30:08.957Z,7.72
2022-10-01T02:33:12.170Z,7.74
2022-10-01T02:36:13.772Z,7.77
2022-10-01T02:39:15.801Z,7.78
2022-10-01T02:42:17.394Z,7.68
2022-10-01T02:45:22.769Z,7.60
2022-10-01T02:48:24.313Z,7.38
2022-10-01T02:51:29.549Z,7.33
2022-10-01T02:54:51.345Z,7.18
2022-10-01T02:57:52.953Z,7.10
2022-10-01T03:00:54.503Z,7.10
2022-10-01T03:03:56.042Z,6.98
2022-10-01T03:07:03.496Z,7.02
2022-10-01T03:10:05.670Z,7.09
2022-10-01T03:13:07.506Z,7.29
2022-10-01T03:16:09.093Z,7.36
2022-10-01T03:19:10.709Z,7.37
2022-10-01T03:22:14.152Z,7.44
2022-10-01T03:25:15.725Z,7.54
2022-10-01T03:28:17.337Z,7.68
2022-10-01T03:31:18.985Z,7.71
2022-10-01T03:34:20.706Z,7.77
2022-10-01T03:37:22.273Z,7.72
2022-10-01T03:40:25.589Z,7.72
2022-10-01T03:43:29.103Z,7.66
2022-10-01T03:46:30.917Z,7.68
2022-10-01T03:49:32.457Z,7.64
2022-10-01T03:52:34.037Z,7.61
2022-10-01T03:55:35.564Z,7.77
2022-10-01T03:58:37.138Z,7.80
2022-10-01T04:01:39.414Z,7.83
2022-10-01T04:04:41.249Z,7.84
2022-10-01T04:07:42.808Z,7.79
2022-10-01T04:10:44.450Z,7.67
2022-10-01T04:13:45.973Z,7.62
2022-10-01T04:16:49.218Z,7.56
2022-10-01T04:19:50.780Z,7.58
2022-10-01T04:22:53.232Z,7.54
2022-10-01T04:25:54.884Z,7.44
2022-10-01T04:28:56.457Z,7.33
2022-10-01T04:31:58.366Z,7.25
2022-10-01T04:35:00.350Z,7.17
2022-10-01T04:38:03.704Z,7.18
2022-10-01T04:41:05.340Z,7.32
2022-10-01T04:44:06.954Z,7.28
2022-10-01T04:47:08.723Z,7.33
2022-10-01T04:50:10.331Z,7.25
2022-10-01T04:53:11.900Z,7.15
2022-10-01T04:56:13.406Z,7.04
2022-10-01T04:59:14.985Z,7.12
2022-10-01T05:02:18.120Z,7.19
2022-10-01T05:05:20.384Z,7.34
2022-10-01T05:08:22.583Z,7.54
2022-10-01T05:11:24.148Z,7.54
2022-10-01T05:14:26.133Z,7.55
2022-10-01T05:17:27.806Z,7.54
2022-10-01T05:20:29.669Z,7.53
2022-10-01T05:23:31.253Z,7.54
2022-10-01T05:26:32.785Z,7.63
2022-10-01T05:29:35.353Z,7.62
2022-10-01T05:32:37.019Z,7.15
2022-10-01T05:35:38.583Z,7.07
2022-10-01T05:38:40.147Z,7.35
2022-10-01T05:41:41.754Z,7.52
2022-10-01T05:44:46.306Z,7.42
2022-10-01T05:47:49.088Z,7.42
2022-10-01T05:50:50.690Z,7.69
2022-10-01T05:53:55.594Z,7.65
2022-10-01T05:56:57.425Z,7.32
2022-10-01T05:59:59.063Z,7.09
2022-10-01T06:03:01.094Z,6.92
2022-10-01T06:06:05.390Z,6.96
2022-10-01T06:09:06.899Z,6.98
2022-10-01T06:12:09.847Z,7.05
2022-10-01T06:15:11.790Z,7.26
2022-10-01T06:18:13.497Z,7.17
2022-10-01T06:21:15.127Z,7.00
2022-10-01T06:24:16.701Z,6.91
2022-10-01T06:27:18.618Z,7.10
2022-10-01T06:30:20.171Z,7.22
2022-10-01T06:33:21.886Z,7.30
2022-10-01T06:36:23.457Z,7.48
2022-10-01T06:39:24.977Z,7.46
2022-10-01T06:42:26.569Z,7.63
2022-10-01T06:45:29.168Z,7.79
2022-10-01T06:48:31.492Z,7.88
2022-10-01T06:51:51.624Z,7.85
2022-10-01T06:54:53.163Z,7.83
2022-10-01T06:57:58.645Z,7.75
2022-10-01T07:01:01.462Z,7.86
2022-10-01T07:04:03.161Z,8.17
2022-10-01T07:07:04.741Z,8.05
2022-10-01T07:10:07.119Z,7.90
2022-10-01T07:13:09.454Z,7.82
2022-10-01T07:16:11.051Z,7.81
2022-10-01T07:19:12.603Z,7.88
2022-10-01T07:22:14.153Z,8.04
2022-10-01T07:25:16.042Z,8.23
2022-10-01T07:28:18.903Z,8.41
2022-10-01T07:31:20.769Z,8.56
2022-10-01T07:34:24.845Z,8.74
2022-10-01T07:37:26.434Z,8.88
2022-10-01T07:40:27.998Z,8.95
2022-10-01T07:43:31.062Z,9.06
2022-10-01T07:46:34.829Z,9.26
2022-10-01T07:49:36.585Z,9.46
2022-10-01T07:52:38.105Z,9.56
2022-10-01T07:55:39.713Z,9.65
2022-10-01T07:58:41.329Z,9.82
2022-10-01T08:01:42.945Z,9.96
2022-10-01T08:05:03.141Z,10.15
2022-10-01T08:08:05.509Z,10.21
2022-10-01T08:11:09.205Z,10.32
2022-10-01T08:14:10.790Z,10.44
2022-10-01T08:17:12.324Z,10.54
2022-10-01T08:20:14.109Z,10.72
2022-10-01T08:23:16.067Z,11.04
2022-10-01T08:26:17.623Z,11.20
2022-10-01T08:29:19.252Z,11.13
2022-10-01T08:32:22.098Z,11.01
2022-10-01T08:35:24.049Z,10.97
2022-10-01T08:38:25.623Z,10.93
2022-10-01T08:41:39.464Z,10.89
2022-10-01T08:44:42.966Z,10.33
2022-10-01T08:47:46.787Z,9.95
2022-10-01T08:50:55.286Z,9.88
2022-10-01T08:54:15.493Z,10.00
2022-10-01T08:57:21.385Z,10.24
2022-10-01T09:00:23.209Z,10.53
2022-10-01T09:03:25.034Z,10.61
2022-10-01T09:06:26.963Z,10.70
2022-10-01T09:09:28.487Z,10.86
2022-10-01T09:12:30.132Z,11.07
2022-10-01T09:15:39.451Z,11.45
2022-10-01T09:18:50.033Z,11.61
2022-10-01T09:21:56.517Z,11.81
2022-10-01T09:25:04.078Z,11.65
2022-10-01T09:28:15.956Z,11.66
2022-10-01T09:31:18.992Z,11.73
2022-10-01T09:34:40.093Z,11.78
2022-10-01T09:37:50.060Z,12.00
2022-10-01T09:40:53.504Z,12.17
2022-10-01T09:43:55.006Z,12.04
2022-10-01T09:46:56.718Z,12.02
2022-10-01T09:49:58.556Z,11.99
2022-10-01T09:53:00.439Z,12.13
2022-10-01T09:56:16.642Z,12.19
2022-10-01T09:59:22.666Z,12.22
2022-10-01T10:02:28.815Z,12.51
2022-10-01T10:05:30.682Z,12.79
2022-10-01T10:08:40.140Z,12.88
2022-10-01T10:11:42.928Z,12.96
2022-10-01T10:14:44.913Z,12.67
2022-10-01T10:17:50.303Z,12.67
2022-10-01T10:20:52.706Z,12.61
2022-10-01T10:24:20.671Z,12.78
2022-10-01T10:27:26.668Z,12.83
2022-10-01T10:30:28.210Z,12.89
2022-10-01T10:33:29.811Z,12.92
2022-10-01T10:36:33.202Z,13.01
2022-10-01T10:39:38.562Z,13.01
2022-10-01T10:42:46.064Z,13.01
2022-10-01T10:45:47.663Z,13.26
2022-10-01T10:48:51.306Z,13.20
2022-10-01T10:51:54.132Z,13.15
2022-10-01T10:54:56.429Z,13.12
2022-10-01T10:58:11.113Z,13.15
2022-10-01T11:01:13.717Z,13.24
2022-10-01T11:04:27.581Z,13.49
2022-10-01T11:07:29.178Z,13.57
2022-10-01T11:10:42.718Z,13.73
2022-10-01T11:13:49.701Z,14.05
2022-10-01T11:17:00.455Z,14.12
2022-10-01T11:20:24.436Z,14.14
2022-10-01T11:23:27.634Z,14.27
2022-10-01T11:26:50.604Z,14.42
2022-10-01T11:30:12.854Z,13.85
2022-10-01T11:33:20.158Z,14.27
2022-10-01T11:36:24.904Z,13.42
2022-10-01T11:39:26.739Z,13.34
2022-10-01T11:42:34.799Z,13.50
2022-10-01T11:45:39.270Z,14.31
2022-10-01T11:48:57.518Z,13.74
2022-10-01T11:52:17.904Z,13.63
2022-10-01T11:55:45.494Z,14.61
2022-10-01T11:58:52.851Z,14.04
2022-10-01T12:02:01.990Z,13.89
2022-10-01T12:05:17.278Z,14.60
2022-10-01T12:08:23.662Z,14.36
2022-10-01T12:11:32.209Z,14.54
2022-10-01T12:14:36.985Z,14.12
2022-10-01T12:17:40.377Z,14.26
2022-10-01T12:20:43.241Z,13.61
2022-10-01T12:23:50.430Z,14.04
2022-10-01T12:26:57.844Z,13.53
2022-10-01T12:30:02.442Z,13.50
2022-10-01T12:33:22.190Z,13.25
2022-10-01T12:36:26.007Z,12.61
2022-10-01T12:39:42.980Z,12.31
2022-10-01T12:42:48.252Z,11.96
2022-10-01T12:45:49.938Z,11.75
2022-10-01T12:49:09.981Z,12.22
2022-10-01T12:52:14.291Z,13.32
2022-10-01T12:55:34.499Z,13.64
2022-10-01T12:58:51.235Z,13.80
2022-10-01T13:02:11.556Z,13.22
2022-10-01T13:05:16.163Z,13.21
2022-10-01T13:08:17.649Z,13.19
2022-10-01T13:11:37.574Z,13.64
2022-10-01T13:14:39.750Z,13.83
2022-10-01T13:17:47.030Z,14.19
2022-10-01T13:20:55.790Z,15.23
2022-10-01T13:24:16.334Z,14.04
2022-10-01T13:27:25.229Z,14.32
2022-10-01T13:30:26.990Z,14.98
2022-10-01T13:33:29.666Z,15.33
2022-10-01T13:36:32.382Z,15.44
2022-10-01T13:39:38.899Z,16.03
2022-10-01T13:42:42.462Z,15.62
2022-10-01T13:45:44.822Z,15.52
2022-10-01T13:48:47.029Z,15.50
2022-10-01T13:51:48.575Z,14.50
2022-10-01T13:54:51.009Z,15.47
2022-10-01T13:58:01.428Z,16.32
2022-10-01T14:01:04.474Z,16.34
2022-10-01T14:04:08.775Z,15.41
2022-10-01T14:07:22.236Z,15.70
2022-10-01T14:10:23.942Z,15.83
2022-10-01T14:13:44.734Z,15.50
2022-10-01T14:16:46.319Z,15.73
2022-10-01T14:19:49.706Z,16.00
2022-10-01T14:23:03.494Z,16.28
2022-10-01T14:26:07.454Z,16.55
2022-10-01T14:29:24.827Z,15.19
2022-10-01T14:32:35.551Z,15.86
2022-10-01T14:35:38.686Z,16.67
2022-10-01T14:38:40.202Z,15.38
2022-10-01T14:41:41.903Z,15.90
2022-10-01T14:44:44.527Z,16.32
2022-10-01T14:47:48.864Z,16.33
2022-10-01T14:50:51.905Z,16.70
2022-10-01T14:53:53.821Z,16.68
2022-10-01T14:56:55.404Z,16.77
2022-10-01T14:59:57.575Z,16.79
2022-10-01T15:03:02.376Z,16.29
2022-10-01T15:06:04.594Z,15.21
2022-10-01T15:09:10.868Z,15.35
2022-10-01T15:12:13.042Z,15.19
2022-10-01T15:15:18.872Z,16.38
2022-10-01T15:18:20.660Z,16.60
2022-10-01T15:21:30.891Z,16.18
2022-10-01T15:24:42.751Z,16.29
2022-10-01T15:27:44.470Z,16.49
2022-10-01T15:30:46.114Z,16.73
2022-10-01T15:33:47.969Z,16.05
2022-10-01T15:36:49.715Z,16.31
2022-10-01T15:39:51.802Z,16.34
2022-10-01T15:43:08.656Z,16.39
2022-10-01T15:46:10.508Z,16.23
2022-10-01T15:49:15.190Z,15.71
2022-10-01T15:52:35.069Z,16.16
2022-10-01T15:55:41.612Z,16.34
2022-10-01T15:58:44.905Z,16.19
2022-10-01T16:01:46.491Z,15.39
2022-10-01T16:04:48.098Z,15.06
2022-10-01T16:07:54.551Z,14.60
2022-10-01T16:11:18.367Z,13.92
2022-10-01T16:14:32.251Z,14.28
2022-10-01T16:17:34.957Z,14.24
2022-10-01T16:20:43.916Z,13.73
2022-10-01T16:23:49.520Z,13.56
2022-10-01T16:26:52.345Z,13.43
2022-10-01T16:30:14.190Z,14.45
2022-10-01T16:33:15.710Z,15.46
2022-10-01T16:36:21.819Z,15.41
2022-10-01T16:39:25.132Z,15.64
2022-10-01T16:42:26.634Z,15.02
2022-10-01T16:45:32.626Z,15.15
2022-10-01T16:48:34.234Z,15.04
2022-10-01T16:51:35.802Z,14.85
2022-10-01T16:54:37.606Z,15.02
2022-10-01T16:57:39.707Z,14.94
2022-10-01T17:00:41.489Z,14.85
2022-10-01T17:03:43.128Z,14.42
2022-10-01T17:06:44.751Z,14.05
2022-10-01T17:09:46.449Z,13.71
2022-10-01T17:12:48.091Z,12.86
2022-10-01T17:15:50.815Z,12.16
2022-10-01T17:18:52.376Z,12.26
2022-10-01T17:21:55.810Z,12.16
2022-10-01T17:24:57.362Z,12.05
2022-10-01T17:28:01.628Z,11.65
2022-10-01T17:31:06.661Z,11.39
2022-10-01T17:34:08.469Z,11.14
2022-10-01T17:37:09.975Z,11.06
2022-10-01T17:40:11.719Z,10.94
2022-10-01T17:43:13.787Z,10.80
2022-10-01T17:46:15.411Z,10.64
2022-10-01T17:49:17.177Z,10.54
2022-10-01T17:52:19.073Z,10.39
2022-10-01T17:55:23.597Z,10.35
2022-10-01T17:58:25.142Z,10.29
2022-10-01T18:01:26.715Z,10.32
2022-10-01T18:04:28.302Z,10.34
2022-10-01T18:07:29.827Z,10.47
2022-10-01T18:10:31.375Z,10.50
2022-10-01T18:13:33.250Z,10.47
2022-10-01T18:16:35.197Z,10.37
2022-10-01T18:19:53.699Z,10.50
2022-10-01T18:22:55.579Z,10.50
2022-10-01T18:25:57.143Z,10.44
2022-10-01T18:28:58.736Z,10.41
2022-10-01T18:32:09.119Z,10.32
2022-10-01T18:35:40.608Z,10.28
2022-10-01T18:38:42.746Z,10.16
2022-10-01T18:41:44.366Z,10.21
2022-10-01T18:44:46.474Z,10.25
2022-10-01T18:48:07.998Z,10.17
2022-10-01T18:51:28.358Z,10.16
2022-10-01T18:54:31.932Z,10.16
2022-10-01T18:57:41.231Z,10.16
2022-10-01T19:00:49.324Z,10.11
2022-10-01T19:04:00.223Z,10.13
2022-10-01T19:07:03.716Z,10.20
2022-10-01T19:10:08.254Z,10.21
2022-10-01T19:13:11.894Z,10.16
2022-10-01T19:16:32.052Z,10.16
2022-10-01T19:19:52.635Z,10.16
2022-10-01T19:23:10.544Z,9.96
2022-10-01T19:26:14.752Z,9.89
2022-10-01T19:29:20.758Z,10.01
2022-10-01T19:32:26.224Z,9.99
2022-10-01T19:35:29.681Z,9.99
2022-10-01T19:38:35.471Z,10.02
2022-10-01T19:41:38.516Z,9.91
2022-10-01T19:44:58.786Z,9.83
2022-10-01T19:48:07.950Z,9.67
2022-10-01T19:51:12.463Z,9.59
2022-10-01T19:54:16.953Z,9.55
2022-10-01T19:57:22.479Z,9.55
2022-10-01T20:00:24.070Z,9.33
2022-10-01T20:03:36.762Z,9.65
2022-10-01T20:06:39.027Z,9.80
2022-10-01T20:10:06.964Z,9.99
2022-10-01T20:13:30.973Z,10.17
2022-10-01T20:16:43.920Z,10.02
2022-10-01T20:19:49.329Z,9.93
2022-10-01T20:22:59.992Z,9.83
2022-10-01T20:26:01.571Z,9.82
2022-10-01T20:29:06.818Z,9.84
2022-10-01T20:32:26.934Z,10.02
2022-10-01T20:35:47.220Z,10.13
2022-10-01T20:39:03.874Z,9.94
2022-10-01T20:42:05.421Z,9.93
2022-10-01T20:45:07.209Z,9.80
2022-10-01T20:48:27.522Z,9.67
2022-10-01T20:51:49.366Z,9.65
2022-10-01T20:54:54.154Z,9.82
2022-10-01T20:57:56.237Z,9.82
2022-10-01T21:01:18.104Z,9.82
2022-10-01T21:04:21.555Z,9.81
2022-10-01T21:07:23.663Z,9.94
2022-10-01T21:10:30.389Z,9.95
2022-10-01T21:13:31.918Z,9.91
2022-10-01T21:16:38.306Z,10.01
2022-10-01T21:19:49.162Z,9.94
2022-10-01T21:23:08.851Z,9.92
2022-10-01T21:26:16.322Z,9.74
2022-10-01T21:29:38.098Z,9.69
2022-10-01T21:33:02.065Z,9.84
2022-10-01T21:36:08.210Z,10.12
2022-10-01T21:39:11.373Z,10.03
2022-10-01T21:42:12.865Z,10.12
2022-10-01T21:45:20.797Z,10.15
2022-10-01T21:48:28.279Z,10.10
2022-10-01T21:51:38.762Z,10.06
2022-10-01T21:54:58.906Z,10.17
2022-10-01T21:58:12.636Z,10.25
2022-10-01T22:01:21.268Z,10.26
2022-10-01T22:04:38.363Z,10.09
2022-10-01T22:08:06.490Z,10.01
2022-10-01T22:11:09.411Z,9.87
2022-10-01T22:14:14.975Z,9.72
2022-10-01T22:17:18.177Z,9.59
2022-10-01T22:20:20.437Z,9.38
2022-10-01T22:23:22.054Z,9.21
2022-10-01T22:26:23.759Z,9.26
2022-10-01T22:29:25.692Z,9.24
2022-10-01T22:32:29.034Z,9.17
2022-10-01T22:35:41.600Z,9.11
2022-10-01T22:38:54.000Z,9.14
2022-10-01T22:42:04.028Z,9.22
2022-10-01T22:45:09.069Z,9.44
2022-10-01T22:48:16.238Z,9.52
2022-10-01T22:51:36.747Z,9.45
2022-10-01T22:54:58.541Z,9.37
2022-10-01T22:58:10.520Z,9.28
2022-10-01T23:01:16.006Z,9.15
2022-10-01T23:04:17.573Z,9.02
2022-10-01T23:07:28.222Z,8.80
2022-10-01T23:10:45.045Z,8.60
2022-10-01T23:14:04.613Z,8.53
2022-10-01T23:17:06.201Z,8.78
2022-10-01T23:20:43.692Z,8.89
2022-10-01T23:23:51.706Z,8.89
2022-10-01T23:26:56.781Z,8.87
2022-10-01T23:29:58.303Z,8.82
2022-10-01T23:33:08.681Z,8.89
2022-10-01T23:36:10.194Z,8.88
2022-10-01T23:39:20.796Z,8.84
2022-10-01T23:42:35.809Z,8.77
2022-10-01T23:45:45.978Z,8.90
2022-10-01T23:49:00.364Z,8.95
2022-10-01T23:52:07.934Z,9.00
2022-10-01T23:55:35.604Z,9.03
2022-10-01T23:58:40.454Z,9.02
